sensor_id;sensor_type;location;lat;lon;timestamp;temperature;humidity
68257;DHT22;55069;51.568;4.656;2023-02-10T00:01:26;1.14;95.29
68257;DHT22;55069;51.568;4.656;2023-02-10T00:03:52;1.11;95.34
68257;DHT22;55069;51.568;4.656;2023-02-10T00:06:19;1.10;95.35
68257;DHT22;55069;51.568;4.656;2023-02-10T00:08:49;1.08;95.40
68257;DHT22;55069;51.568;4.656;2023-02-10T00:11:15;1.08;95.41
68257;DHT22;55069;51.568;4.656;2023-02-10T00:13:41;1.08;95.43
68257;DHT22;55069;51.568;4.656;2023-02-10T00:16:10;1.04;95.45
68257;DHT22;55069;51.568;4.656;2023-02-10T00:18:36;1.04;95.43
68257;DHT22;55069;51.568;4.656;2023-02-10T00:21:07;1.00;95.41
68257;DHT22;55069;51.568;4.656;2023-02-10T00:23:33;0.96;95.36
68257;DHT22;55069;51.568;4.656;2023-02-10T00:26:02;0.93;95.36
68257;DHT22;55069;51.568;4.656;2023-02-10T00:28:28;0.89;95.35
68257;DHT22;55069;51.568;4.656;2023-02-10T00:30:53;0.87;95.33
68257;DHT22;55069;51.568;4.656;2023-02-10T00:33:19;0.87;95.35
68257;DHT22;55069;51.568;4.656;2023-02-10T00:35:44;0.80;95.30
68257;DHT22;55069;51.568;4.656;2023-02-10T00:38:10;0.75;95.16
68257;DHT22;55069;51.568;4.656;2023-02-10T00:40:36;0.73;95.21
68257;DHT22;55069;51.568;4.656;2023-02-10T00:43:01;0.70;95.19
68257;DHT22;55069;51.568;4.656;2023-02-10T00:45:27;0.69;95.16
68257;DHT22;55069;51.568;4.656;2023-02-10T00:47:52;0.66;95.21
68257;DHT22;55069;51.568;4.656;2023-02-10T00:50:19;0.68;95.22
68257;DHT22;55069;51.568;4.656;2023-02-10T00:52:44;0.63;95.12
68257;DHT22;55069;51.568;4.656;2023-02-10T00:55:10;0.58;95.11
68257;DHT22;55069;51.568;4.656;2023-02-10T00:57:35;0.55;95.08
68257;DHT22;55069;51.568;4.656;2023-02-10T01:00:01;0.49;95.10
68257;DHT22;55069;51.568;4.656;2023-02-10T01:02:27;0.48;95.09
68257;DHT22;55069;51.568;4.656;2023-02-10T01:04:53;0.45;95.15
68257;DHT22;55069;51.568;4.656;2023-02-10T01:07:18;0.44;95.10
68257;DHT22;55069;51.568;4.656;2023-02-10T01:09:44;0.38;95.05
68257;DHT22;55069;51.568;4.656;2023-02-10T01:12:09;0.35;95.10
68257;DHT22;55069;51.568;4.656;2023-02-10T01:14:35;0.27;95.03
68257;DHT22;55069;51.568;4.656;2023-02-10T01:17:00;0.18;94.95
68257;DHT22;55069;51.568;4.656;2023-02-10T01:19:26;0.11;94.88
68257;DHT22;55069;51.568;4.656;2023-02-10T01:21:52;-0.04;94.81
68257;DHT22;55069;51.568;4.656;2023-02-10T01:24:17;-0.03;94.87
68257;DHT22;55069;51.568;4.656;2023-02-10T01:26:43;0.03;95.03
68257;DHT22;55069;51.568;4.656;2023-02-10T01:29:08;0.08;95.09
68257;DHT22;55069;51.568;4.656;2023-02-10T01:31:34;0.13;95.27
68257;DHT22;55069;51.568;4.656;2023-02-10T01:33:59;0.28;95.40
68257;DHT22;55069;51.568;4.656;2023-02-10T01:36:26;0.25;95.52
68257;DHT22;55069;51.568;4.656;2023-02-10T01:38:51;0.32;95.54
68257;DHT22;55069;51.568;4.656;2023-02-10T01:41:20;0.32;95.50
68257;DHT22;55069;51.568;4.656;2023-02-10T01:46:48;0.31;95.56
68257;DHT22;55069;51.568;4.656;2023-02-10T01:49:18;0.28;95.61
68257;DHT22;55069;51.568;4.656;2023-02-10T01:51:55;0.31;95.61
68257;DHT22;55069;51.568;4.656;2023-02-10T01:54:25;0.31;95.65
68257;DHT22;55069;51.568;4.656;2023-02-10T01:56:52;0.28;95.64
68257;DHT22;55069;51.568;4.656;2023-02-10T01:59:18;0.28;95.61
68257;DHT22;55069;51.568;4.656;2023-02-10T02:01:45;0.32;95.58
68257;DHT22;55069;51.568;4.656;2023-02-10T02:04:11;0.29;95.57
68257;DHT22;55069;51.568;4.656;2023-02-10T02:06:37;0.27;95.56
68257;DHT22;55069;51.568;4.656;2023-02-10T02:09:03;0.27;95.54
68257;DHT22;55069;51.568;4.656;2023-02-10T02:12:09;0.27;95.53
68257;DHT22;55069;51.568;4.656;2023-02-10T02:15:07;0.28;95.50
68257;DHT22;55069;51.568;4.656;2023-02-10T02:17:52;0.29;95.58
68257;DHT22;55069;51.568;4.656;2023-02-10T02:23:46;0.42;95.67
68257;DHT22;55069;51.568;4.656;2023-02-10T02:34:58;0.54;95.77
68257;DHT22;55069;51.568;4.656;2023-02-10T02:37:34;0.52;95.85
68257;DHT22;55069;51.568;4.656;2023-02-10T02:40:03;0.59;95.83
68257;DHT22;55069;51.568;4.656;2023-02-10T02:42:30;0.59;95.84
68257;DHT22;55069;51.568;4.656;2023-02-10T02:51:44;0.65;95.92
68257;DHT22;55069;51.568;4.656;2023-02-10T02:54:24;0.63;95.90
68257;DHT22;55069;51.568;4.656;2023-02-10T02:57:08;0.68;95.91
68257;DHT22;55069;51.568;4.656;2023-02-10T02:59:49;0.70;95.93
68257;DHT22;55069;51.568;4.656;2023-02-10T03:02:17;0.70;95.96
68257;DHT22;55069;51.568;4.656;2023-02-10T03:04:45;0.72;95.99
68257;DHT22;55069;51.568;4.656;2023-02-10T03:07:10;0.76;96.01
68257;DHT22;55069;51.568;4.656;2023-02-10T03:09:37;0.76;96.05
68257;DHT22;55069;51.568;4.656;2023-02-10T03:12:03;0.77;96.08
68257;DHT22;55069;51.568;4.656;2023-02-10T03:14:29;0.77;96.03
68257;DHT22;55069;51.568;4.656;2023-02-10T03:16:54;0.72;96.01
68257;DHT22;55069;51.568;4.656;2023-02-10T03:19:20;0.69;95.97
68257;DHT22;55069;51.568;4.656;2023-02-10T03:21:45;0.73;95.96
68257;DHT22;55069;51.568;4.656;2023-02-10T03:24:13;0.70;95.93
68257;DHT22;55069;51.568;4.656;2023-02-10T03:26:38;0.75;95.96
68257;DHT22;55069;51.568;4.656;2023-02-10T03:29:04;0.73;96.00
68257;DHT22;55069;51.568;4.656;2023-02-10T03:31:30;0.73;96.04
68257;DHT22;55069;51.568;4.656;2023-02-10T03:33:56;0.75;96.06
68257;DHT22;55069;51.568;4.656;2023-02-10T03:36:21;0.75;96.09
68257;DHT22;55069;51.568;4.656;2023-02-10T03:38:47;0.73;96.10
68257;DHT22;55069;51.568;4.656;2023-02-10T03:41:13;0.75;96.16
68257;DHT22;55069;51.568;4.656;2023-02-10T03:43:39;0.76;96.13
68257;DHT22;55069;51.568;4.656;2023-02-10T03:46:07;0.75;96.16
68257;DHT22;55069;51.568;4.656;2023-02-10T03:48:32;0.72;96.12
68257;DHT22;55069;51.568;4.656;2023-02-10T03:50:59;0.72;96.13
68257;DHT22;55069;51.568;4.656;2023-02-10T03:53:26;0.72;96.08
68257;DHT22;55069;51.568;4.656;2023-02-10T03:55:52;0.69;96.10
68257;DHT22;55069;51.568;4.656;2023-02-10T03:58:17;0.65;96.04
68257;DHT22;55069;51.568;4.656;2023-02-10T04:00:43;0.68;96.06
68257;DHT22;55069;51.568;4.656;2023-02-10T04:03:08;0.70;96.11
68257;DHT22;55069;51.568;4.656;2023-02-10T04:05:34;0.70;96.12
68257;DHT22;55069;51.568;4.656;2023-02-10T04:07:59;0.72;96.16
68257;DHT22;55069;51.568;4.656;2023-02-10T04:10:26;0.75;96.13
68257;DHT22;55069;51.568;4.656;2023-02-10T04:12:52;0.79;96.15
68257;DHT22;55069;51.568;4.656;2023-02-10T04:15:17;0.77;96.14
68257;DHT22;55069;51.568;4.656;2023-02-10T04:17:43;0.76;96.11
68257;DHT22;55069;51.568;4.656;2023-02-10T04:20:09;0.76;96.15
68257;DHT22;55069;51.568;4.656;2023-02-10T04:22:35;0.77;96.17
68257;DHT22;55069;51.568;4.656;2023-02-10T04:25:00;0.77;96.14
68257;DHT22;55069;51.568;4.656;2023-02-10T04:27:26;0.77;96.15
68257;DHT22;55069;51.568;4.656;2023-02-10T04:29:52;0.82;96.15
68257;DHT22;55069;51.568;4.656;2023-02-10T04:32:18;0.79;96.14
68257;DHT22;55069;51.568;4.656;2023-02-10T04:34:43;0.80;96.15
68257;DHT22;55069;51.568;4.656;2023-02-10T04:37:09;0.80;96.18
68257;DHT22;55069;51.568;4.656;2023-02-10T04:39:34;0.79;96.16
68257;DHT22;55069;51.568;4.656;2023-02-10T04:42:00;0.79;96.13
68257;DHT22;55069;51.568;4.656;2023-02-10T04:44:25;0.77;96.13
68257;DHT22;55069;51.568;4.656;2023-02-10T04:46:51;0.77;96.12
68257;DHT22;55069;51.568;4.656;2023-02-10T04:49:17;0.76;96.09
68257;DHT22;55069;51.568;4.656;2023-02-10T04:51:42;0.75;96.09
68257;DHT22;55069;51.568;4.656;2023-02-10T04:54:08;0.77;96.07
68257;DHT22;55069;51.568;4.656;2023-02-10T04:56:34;0.69;96.00
68257;DHT22;55069;51.568;4.656;2023-02-10T04:58:59;0.63;96.01
68257;DHT22;55069;51.568;4.656;2023-02-10T05:01:25;0.62;96.02
68257;DHT22;55069;51.568;4.656;2023-02-10T05:03:50;0.58;95.97
68257;DHT22;55069;51.568;4.656;2023-02-10T05:06:16;0.59;96.00
68257;DHT22;55069;51.568;4.656;2023-02-10T05:08:42;0.56;96.01
68257;DHT22;55069;51.568;4.656;2023-02-10T05:11:09;0.61;95.97
68257;DHT22;55069;51.568;4.656;2023-02-10T05:13:35;0.58;95.92
68257;DHT22;55069;51.568;4.656;2023-02-10T05:16:00;0.55;95.89
68257;DHT22;55069;51.568;4.656;2023-02-10T05:18:29;0.52;95.85
68257;DHT22;55069;51.568;4.656;2023-02-10T05:20:55;0.51;95.86
68257;DHT22;55069;51.568;4.656;2023-02-10T05:23:20;0.52;95.86
68257;DHT22;55069;51.568;4.656;2023-02-10T05:25:46;0.46;95.85
68257;DHT22;55069;51.568;4.656;2023-02-10T05:28:12;0.45;95.84
68257;DHT22;55069;51.568;4.656;2023-02-10T05:30:37;0.44;95.83
68257;DHT22;55069;51.568;4.656;2023-02-10T05:33:03;0.40;95.85
68257;DHT22;55069;51.568;4.656;2023-02-10T05:35:28;0.41;95.88
68257;DHT22;55069;51.568;4.656;2023-02-10T05:37:54;0.45;95.89
68257;DHT22;55069;51.568;4.656;2023-02-10T05:40:20;0.41;95.90
68257;DHT22;55069;51.568;4.656;2023-02-10T05:42:45;0.41;95.89
68257;DHT22;55069;51.568;4.656;2023-02-10T05:45:11;0.42;95.87
68257;DHT22;55069;51.568;4.656;2023-02-10T05:47:36;0.46;95.91
68257;DHT22;55069;51.568;4.656;2023-02-10T05:50:02;0.42;95.92
68257;DHT22;55069;51.568;4.656;2023-02-10T05:52:28;0.44;95.85
68257;DHT22;55069;51.568;4.656;2023-02-10T05:54:53;0.44;95.87
68257;DHT22;55069;51.568;4.656;2023-02-10T05:57:19;0.44;95.84
68257;DHT22;55069;51.568;4.656;2023-02-10T05:59:44;0.42;95.80
68257;DHT22;55069;51.568;4.656;2023-02-10T06:02:10;0.40;95.84
68257;DHT22;55069;51.568;4.656;2023-02-10T06:04:35;0.32;95.82
68257;DHT22;55069;51.568;4.656;2023-02-10T06:07:01;0.32;95.82
68257;DHT22;55069;51.568;4.656;2023-02-10T06:09:26;0.34;95.84
68257;DHT22;55069;51.568;4.656;2023-02-10T06:11:53;0.38;95.83
68257;DHT22;55069;51.568;4.656;2023-02-10T06:14:19;0.37;95.79
68257;DHT22;55069;51.568;4.656;2023-02-10T06:16:45;0.32;95.81
68257;DHT22;55069;51.568;4.656;2023-02-10T06:19:10;0.35;95.81
68257;DHT22;55069;51.568;4.656;2023-02-10T06:21:36;0.35;95.83
68257;DHT22;55069;51.568;4.656;2023-02-10T06:24:02;0.34;95.86
68257;DHT22;55069;51.568;4.656;2023-02-10T06:26:27;0.37;95.88
68257;DHT22;55069;51.568;4.656;2023-02-10T06:28:53;0.34;95.90
68257;DHT22;55069;51.568;4.656;2023-02-10T06:31:19;0.32;95.90
68257;DHT22;55069;51.568;4.656;2023-02-10T06:33:45;0.40;95.92
68257;DHT22;55069;51.568;4.656;2023-02-10T06:36:10;0.45;95.96
68257;DHT22;55069;51.568;4.656;2023-02-10T06:38:37;0.45;95.95
68257;DHT22;55069;51.568;4.656;2023-02-10T06:41:03;0.46;95.93
68257;DHT22;55069;51.568;4.656;2023-02-10T06:43:29;0.46;95.89
68257;DHT22;55069;51.568;4.656;2023-02-10T06:45:54;0.45;95.91
68257;DHT22;55069;51.568;4.656;2023-02-10T06:48:20;0.49;95.93
68257;DHT22;55069;51.568;4.656;2023-02-10T06:50:46;0.51;95.93
68257;DHT22;55069;51.568;4.656;2023-02-10T06:53:11;0.54;95.94
68257;DHT22;55069;51.568;4.656;2023-02-10T06:55:37;0.55;95.97
68257;DHT22;55069;51.568;4.656;2023-02-10T06:58:03;0.55;95.99
68257;DHT22;55069;51.568;4.656;2023-02-10T07:00:29;0.58;95.97
68257;DHT22;55069;51.568;4.656;2023-02-10T07:02:54;0.59;95.99
68257;DHT22;55069;51.568;4.656;2023-02-10T07:05:20;0.61;96.02
68257;DHT22;55069;51.568;4.656;2023-02-10T07:07:46;0.66;96.04
68257;DHT22;55069;51.568;4.656;2023-02-10T07:10:11;0.73;96.02
68257;DHT22;55069;51.568;4.656;2023-02-10T07:12:37;0.76;96.01
68257;DHT22;55069;51.568;4.656;2023-02-10T07:15:04;0.76;95.99
68257;DHT22;55069;51.568;4.656;2023-02-10T07:17:30;0.82;95.95
68257;DHT22;55069;51.568;4.656;2023-02-10T07:19:56;0.86;96.00
68257;DHT22;55069;51.568;4.656;2023-02-10T07:22:21;0.87;95.99
68257;DHT22;55069;51.568;4.656;2023-02-10T07:24:47;0.93;96.01
68257;DHT22;55069;51.568;4.656;2023-02-10T07:27:13;0.93;96.05
68257;DHT22;55069;51.568;4.656;2023-02-10T07:29:38;0.99;96.06
68257;DHT22;55069;51.568;4.656;2023-02-10T07:32:04;1.05;96.10
68257;DHT22;55069;51.568;4.656;2023-02-10T07:34:29;1.05;96.10
68257;DHT22;55069;51.568;4.656;2023-02-10T07:36:59;1.11;96.13
68257;DHT22;55069;51.568;4.656;2023-02-10T07:39:25;1.19;96.15
68257;DHT22;55069;51.568;4.656;2023-02-10T07:41:51;1.26;96.17
68257;DHT22;55069;51.568;4.656;2023-02-10T07:44:19;1.28;96.09
68257;DHT22;55069;51.568;4.656;2023-02-10T07:46:47;1.38;96.12
68257;DHT22;55069;51.568;4.656;2023-02-10T07:49:12;1.38;96.13
68257;DHT22;55069;51.568;4.656;2023-02-10T07:51:38;1.42;96.15
68257;DHT22;55069;51.568;4.656;2023-02-10T07:54:04;1.41;96.17
68257;DHT22;55069;51.568;4.656;2023-02-10T07:56:31;1.45;96.16
68257;DHT22;55069;51.568;4.656;2023-02-10T07:58:57;1.51;96.19
68257;DHT22;55069;51.568;4.656;2023-02-10T08:01:22;1.55;96.22
68257;DHT22;55069;51.568;4.656;2023-02-10T08:03:48;1.59;96.21
68257;DHT22;55069;51.568;4.656;2023-02-10T08:06:19;1.65;96.21
68257;DHT22;55069;51.568;4.656;2023-02-10T08:08:45;1.70;96.23
68257;DHT22;55069;51.568;4.656;2023-02-10T08:11:11;1.78;96.21
68257;DHT22;55069;51.568;4.656;2023-02-10T08:13:36;1.86;96.18
68257;DHT22;55069;51.568;4.656;2023-02-10T08:16:06;1.87;96.20
68257;DHT22;55069;51.568;4.656;2023-02-10T08:18:34;1.89;96.20
68257;DHT22;55069;51.568;4.656;2023-02-10T08:21:00;2.00;96.16
68257;DHT22;55069;51.568;4.656;2023-02-10T08:23:27;2.06;96.20
68257;DHT22;55069;51.568;4.656;2023-02-10T08:25:52;2.13;96.17
68257;DHT22;55069;51.568;4.656;2023-02-10T08:28:18;2.20;96.15
68257;DHT22;55069;51.568;4.656;2023-02-10T08:30:44;2.26;96.10
68257;DHT22;55069;51.568;4.656;2023-02-10T08:33:10;2.34;96.08
68257;DHT22;55069;51.568;4.656;2023-02-10T08:35:37;2.44;95.99
68257;DHT22;55069;51.568;4.656;2023-02-10T08:38:03;2.45;95.97
68257;DHT22;55069;51.568;4.656;2023-02-10T08:40:29;2.58;95.96
68257;DHT22;55069;51.568;4.656;2023-02-10T08:42:55;2.61;95.91
68257;DHT22;55069;51.568;4.656;2023-02-10T08:45:21;2.65;95.95
68257;DHT22;55069;51.568;4.656;2023-02-10T08:47:46;2.79;95.89
68257;DHT22;55069;51.568;4.656;2023-02-10T08:50:12;2.84;95.86
68257;DHT22;55069;51.568;4.656;2023-02-10T08:52:37;2.86;95.80
68257;DHT22;55069;51.568;4.656;2023-02-10T08:55:03;2.97;95.80
68257;DHT22;55069;51.568;4.656;2023-02-10T08:57:29;2.97;95.67
68257;DHT22;55069;51.568;4.656;2023-02-10T08:59:55;3.04;95.67
68257;DHT22;55069;51.568;4.656;2023-02-10T09:02:20;3.14;95.69
68257;DHT22;55069;51.568;4.656;2023-02-10T09:04:46;3.23;95.62
68257;DHT22;55069;51.568;4.656;2023-02-10T09:07:11;3.22;95.47
68257;DHT22;55069;51.568;4.656;2023-02-10T09:09:41;3.27;95.46
68257;DHT22;55069;51.568;4.656;2023-02-10T09:12:08;3.24;95.37
68257;DHT22;55069;51.568;4.656;2023-02-10T09:14:35;3.31;95.26
68257;DHT22;55069;51.568;4.656;2023-02-10T09:17:01;3.41;95.28
68257;DHT22;55069;51.568;4.656;2023-02-10T09:19:27;3.52;95.26
68257;DHT22;55069;51.568;4.656;2023-02-10T09:21:52;3.55;95.26
68257;DHT22;55069;51.568;4.656;2023-02-10T09:24:20;3.58;95.21
68257;DHT22;55069;51.568;4.656;2023-02-10T09:26:46;3.68;95.11
68257;DHT22;55069;51.568;4.656;2023-02-10T09:29:11;3.70;94.92
68257;DHT22;55069;51.568;4.656;2023-02-10T09:31:37;3.71;94.67
68257;DHT22;55069;51.568;4.656;2023-02-10T09:34:03;3.78;94.60
68257;DHT22;55069;51.568;4.656;2023-02-10T09:36:29;3.78;94.48
68257;DHT22;55069;51.568;4.656;2023-02-10T09:38:55;3.79;94.47
68257;DHT22;55069;51.568;4.656;2023-02-10T09:44:21;3.92;94.38
68257;DHT22;55069;51.568;4.656;2023-02-10T09:47:08;3.89;94.24
68257;DHT22;55069;51.568;4.656;2023-02-10T09:54:59;4.32;94.03
68257;DHT22;55069;51.568;4.656;2023-02-10T09:57:42;4.33;93.96
68257;DHT22;55069;51.568;4.656;2023-02-10T10:00:21;4.47;93.96
68257;DHT22;55069;51.568;4.656;2023-02-10T10:02:51;4.58;93.85
68257;DHT22;55069;51.568;4.656;2023-02-10T10:05:38;4.61;93.72
68257;DHT22;55069;51.568;4.656;2023-02-10T10:08:16;4.60;93.50
68257;DHT22;55069;51.568;4.656;2023-02-10T10:10:45;4.69;93.51
68257;DHT22;55069;51.568;4.656;2023-02-10T10:13:22;4.81;93.29
68257;DHT22;55069;51.568;4.656;2023-02-10T10:16:03;4.89;93.29
68257;DHT22;55069;51.568;4.656;2023-02-10T10:18:38;4.86;92.93
68257;DHT22;55069;51.568;4.656;2023-02-10T10:29:54;5.18;92.69
68257;DHT22;55069;51.568;4.656;2023-02-10T10:33:28;5.32;92.68
68257;DHT22;55069;51.568;4.656;2023-02-10T10:35:28;5.43;92.50
68257;DHT22;55069;51.568;4.656;2023-02-10T10:37:55;5.43;92.32
68257;DHT22;55069;51.568;4.656;2023-02-10T10:40:28;5.46;91.76
68257;DHT22;55069;51.568;4.656;2023-02-10T10:42:59;5.51;92.05
68257;DHT22;55069;51.568;4.656;2023-02-10T10:48:14;5.61;91.80
68257;DHT22;55069;51.568;4.656;2023-02-10T10:50:40;5.71;91.84
68257;DHT22;55069;51.568;4.656;2023-02-10T10:53:37;5.82;91.84
68257;DHT22;55069;51.568;4.656;2023-02-10T10:56:06;5.92;91.30
68257;DHT22;55069;51.568;4.656;2023-02-10T10:58:39;5.88;90.83
68257;DHT22;55069;51.568;4.656;2023-02-10T11:01:05;5.95;90.85
68257;DHT22;55069;51.568;4.656;2023-02-10T11:03:32;5.92;91.03
68257;DHT22;55069;51.568;4.656;2023-02-10T11:08:30;6.18;90.58
68257;DHT22;55069;51.568;4.656;2023-02-10T11:10:59;6.09;90.40
68257;DHT22;55069;51.568;4.656;2023-02-10T11:13:28;6.16;90.66
68257;DHT22;55069;51.568;4.656;2023-02-10T11:16:13;6.22;90.04
68257;DHT22;55069;51.568;4.656;2023-02-10T11:18:59;6.26;89.71
68257;DHT22;55069;51.568;4.656;2023-02-10T11:21:37;6.29;89.52
68257;DHT22;55069;51.568;4.656;2023-02-10T11:24:03;6.29;89.53
68257;DHT22;55069;51.568;4.656;2023-02-10T11:26:29;6.44;89.97
68257;DHT22;55069;51.568;4.656;2023-02-10T11:28:55;6.44;89.71
68257;DHT22;55069;51.568;4.656;2023-02-10T11:33:56;6.49;89.11
68257;DHT22;55069;51.568;4.656;2023-02-10T11:36:30;6.56;89.36
68257;DHT22;55069;51.568;4.656;2023-02-10T11:39:03;6.68;89.73
68257;DHT22;55069;51.568;4.656;2023-02-10T11:41:30;6.85;89.36
68257;DHT22;55069;51.568;4.656;2023-02-10T11:43:56;7.02;89.17
68257;DHT22;55069;51.568;4.656;2023-02-10T11:46:24;7.12;88.20
68257;DHT22;55069;51.568;4.656;2023-02-10T11:49:00;7.23;88.18
68257;DHT22;55069;51.568;4.656;2023-02-10T11:51:28;7.33;88.33
68257;DHT22;55069;51.568;4.656;2023-02-10T11:53:55;7.37;87.89
68257;DHT22;55069;51.568;4.656;2023-02-10T12:05:42;7.93;85.27
68257;DHT22;55069;51.568;4.656;2023-02-10T12:11:32;7.64;85.46
68257;DHT22;55069;51.568;4.656;2023-02-10T12:25:40;7.73;85.36
68257;DHT22;55069;51.568;4.656;2023-02-10T12:36:46;7.45;84.61
68257;DHT22;55069;51.568;4.656;2023-02-10T12:45:03;7.37;84.52
68257;DHT22;55069;51.568;4.656;2023-02-10T12:47:46;7.40;84.93
68257;DHT22;55069;51.568;4.656;2023-02-10T12:53:09;7.35;84.20
68257;DHT22;55069;51.568;4.656;2023-02-10T12:56:24;7.16;84.68
68257;DHT22;55069;51.568;4.656;2023-02-10T12:58:34;7.11;85.35
68257;DHT22;55069;51.568;4.656;2023-02-10T13:03:40;7.07;85.29
68257;DHT22;55069;51.568;4.656;2023-02-10T13:06:32;7.07;85.13
68257;DHT22;55069;51.568;4.656;2023-02-10T13:12:23;7.22;85.13
68257;DHT22;55069;51.568;4.656;2023-02-10T13:14:53;7.29;84.70
68257;DHT22;55069;51.568;4.656;2023-02-10T13:17:20;7.19;84.79
68257;DHT22;55069;51.568;4.656;2023-02-10T13:19:59;7.32;84.68
68257;DHT22;55069;51.568;4.656;2023-02-10T13:22:49;7.29;84.33
68257;DHT22;55069;51.568;4.656;2023-02-10T13:25:24;7.26;84.58
68257;DHT22;55069;51.568;4.656;2023-02-10T13:28:21;7.20;84.33
68257;DHT22;55069;51.568;4.656;2023-02-10T13:33:39;7.20;84.42
68257;DHT22;55069;51.568;4.656;2023-02-10T13:36:13;7.20;84.47
68257;DHT22;55069;51.568;4.656;2023-02-10T13:38:39;7.30;84.39
68257;DHT22;55069;51.568;4.656;2023-02-10T13:41:05;7.37;84.21
68257;DHT22;55069;51.568;4.656;2023-02-10T13:43:55;7.52;83.75
68257;DHT22;55069;51.568;4.656;2023-02-10T13:46:30;7.64;83.81
68257;DHT22;55069;51.568;4.656;2023-02-10T13:48:58;7.67;83.46
68257;DHT22;55069;51.568;4.656;2023-02-10T13:51:30;7.63;83.38
68257;DHT22;55069;51.568;4.656;2023-02-10T13:53:57;7.73;83.46
68257;DHT22;55069;51.568;4.656;2023-02-10T13:56:25;7.67;83.59
68257;DHT22;55069;51.568;4.656;2023-02-10T13:58:56;7.71;83.52
68257;DHT22;55069;51.568;4.656;2023-02-10T14:04:00;7.71;83.23
68257;DHT22;55069;51.568;4.656;2023-02-10T14:06:40;7.63;83.56
68257;DHT22;55069;51.568;4.656;2023-02-10T14:09:19;7.74;83.50
68257;DHT22;55069;51.568;4.656;2023-02-10T14:11:46;7.71;83.47
68257;DHT22;55069;51.568;4.656;2023-02-10T14:17:25;7.77;83.01
68257;DHT22;55069;51.568;4.656;2023-02-10T14:19:56;7.77;83.02
68257;DHT22;55069;51.568;4.656;2023-02-10T14:22:30;7.78;82.83
68257;DHT22;55069;51.568;4.656;2023-02-10T14:25:27;7.85;82.74
68257;DHT22;55069;51.568;4.656;2023-02-10T14:27:54;7.90;82.13
68257;DHT22;55069;51.568;4.656;2023-02-10T14:30:23;7.87;82.42
68257;DHT22;55069;51.568;4.656;2023-02-10T14:32:50;7.88;82.02
68257;DHT22;55069;51.568;4.656;2023-02-10T14:35:19;7.85;82.40
68257;DHT22;55069;51.568;4.656;2023-02-10T14:37:54;7.87;82.83
68257;DHT22;55069;51.568;4.656;2023-02-10T14:40:22;7.87;82.76
68257;DHT22;55069;51.568;4.656;2023-02-10T14:42:48;7.88;81.74
68257;DHT22;55069;51.568;4.656;2023-02-10T14:45:24;7.85;81.97
68257;DHT22;55069;51.568;4.656;2023-02-10T14:47:53;7.87;81.36
68257;DHT22;55069;51.568;4.656;2023-02-10T14:50:27;7.84;80.88
68257;DHT22;55069;51.568;4.656;2023-02-10T14:52:53;7.85;80.76
68257;DHT22;55069;51.568;4.656;2023-02-10T14:55:37;7.80;80.86
68257;DHT22;55069;51.568;4.656;2023-02-10T14:58:10;7.83;81.18
68257;DHT22;55069;51.568;4.656;2023-02-10T15:00:39;7.80;81.21
68257;DHT22;55069;51.568;4.656;2023-02-10T15:03:05;7.80;81.34
68257;DHT22;55069;51.568;4.656;2023-02-10T15:05:39;7.78;81.46
68257;DHT22;55069;51.568;4.656;2023-02-10T15:08:16;7.85;80.96
68257;DHT22;55069;51.568;4.656;2023-02-10T15:10:44;7.88;80.85
68257;DHT22;55069;51.568;4.656;2023-02-10T15:13:12;8.01;80.42
68257;DHT22;55069;51.568;4.656;2023-02-10T15:15:43;8.14;79.95
68257;DHT22;55069;51.568;4.656;2023-02-10T15:18:23;8.21;79.69
68257;DHT22;55069;51.568;4.656;2023-02-10T15:20:57;8.28;79.63
68257;DHT22;55069;51.568;4.656;2023-02-10T15:23:23;8.21;79.18
68257;DHT22;55069;51.568;4.656;2023-02-10T15:26:23;8.26;79.58
68257;DHT22;55069;51.568;4.656;2023-02-10T15:29:08;8.22;80.11
68257;DHT22;55069;51.568;4.656;2023-02-10T15:31:35;8.20;79.69
68257;DHT22;55069;51.568;4.656;2023-02-10T15:34:02;8.16;80.41
68257;DHT22;55069;51.568;4.656;2023-02-10T15:36:46;8.08;80.86
68257;DHT22;55069;51.568;4.656;2023-02-10T15:39:29;8.04;80.71
68257;DHT22;55069;51.568;4.656;2023-02-10T15:44:33;7.98;81.57
68257;DHT22;55069;51.568;4.656;2023-02-10T15:49:43;7.91;81.49
68257;DHT22;55069;51.568;4.656;2023-02-10T15:52:12;7.81;81.85
68257;DHT22;55069;51.568;4.656;2023-02-10T15:54:39;7.75;81.37
68257;DHT22;55069;51.568;4.656;2023-02-10T15:57:05;7.69;81.97
68257;DHT22;55069;51.568;4.656;2023-02-10T15:59:32;7.73;82.04
68257;DHT22;55069;51.568;4.656;2023-02-10T16:02:01;7.69;82.28
68257;DHT22;55069;51.568;4.656;2023-02-10T16:04:28;7.63;82.61
68257;DHT22;55069;51.568;4.656;2023-02-10T16:06:58;7.59;83.17
68257;DHT22;55069;51.568;4.656;2023-02-10T16:09:24;7.53;83.21
68257;DHT22;55069;51.568;4.656;2023-02-10T16:11:49;7.40;83.35
68257;DHT22;55069;51.568;4.656;2023-02-10T16:14:15;7.39;83.76
68257;DHT22;55069;51.568;4.656;2023-02-10T16:16:44;7.40;83.59
68257;DHT22;55069;51.568;4.656;2023-02-10T16:19:12;7.35;83.61
68257;DHT22;55069;51.568;4.656;2023-02-10T16:21:38;7.33;83.82
68257;DHT22;55069;51.568;4.656;2023-02-10T16:24:03;7.26;83.89
68257;DHT22;55069;51.568;4.656;2023-02-10T16:26:29;7.26;83.94
68257;DHT22;55069;51.568;4.656;2023-02-10T16:28:55;7.26;84.26
68257;DHT22;55069;51.568;4.656;2023-02-10T16:31:22;7.18;84.14
68257;DHT22;55069;51.568;4.656;2023-02-10T16:33:48;7.18;84.53
68257;DHT22;55069;51.568;4.656;2023-02-10T16:36:16;7.16;84.74
68257;DHT22;55069;51.568;4.656;2023-02-10T16:38:42;7.18;84.54
68257;DHT22;55069;51.568;4.656;2023-02-10T16:41:08;7.14;84.42
68257;DHT22;55069;51.568;4.656;2023-02-10T16:43:34;7.11;84.53
68257;DHT22;55069;51.568;4.656;2023-02-10T16:46:00;7.15;84.32
68257;DHT22;55069;51.568;4.656;2023-02-10T16:48:26;7.16;84.56
68257;DHT22;55069;51.568;4.656;2023-02-10T16:50:51;7.11;84.48
68257;DHT22;55069;51.568;4.656;2023-02-10T16:53:17;7.08;84.64
68257;DHT22;55069;51.568;4.656;2023-02-10T16:55:43;7.08;84.65
68257;DHT22;55069;51.568;4.656;2023-02-10T16:58:17;6.98;85.27
68257;DHT22;55069;51.568;4.656;2023-02-10T17:00:43;6.92;85.36
68257;DHT22;55069;51.568;4.656;2023-02-10T17:03:09;6.87;85.61
68257;DHT22;55069;51.568;4.656;2023-02-10T17:05:35;6.87;85.79
68257;DHT22;55069;51.568;4.656;2023-02-10T17:08:03;6.89;85.66
68257;DHT22;55069;51.568;4.656;2023-02-10T17:10:29;6.92;85.72
68257;DHT22;55069;51.568;4.656;2023-02-10T17:12:55;6.85;85.94
68257;DHT22;55069;51.568;4.656;2023-02-10T17:15:21;6.80;86.29
68257;DHT22;55069;51.568;4.656;2023-02-10T17:17:47;6.80;86.25
68257;DHT22;55069;51.568;4.656;2023-02-10T17:20:21;6.80;86.34
68257;DHT22;55069;51.568;4.656;2023-02-10T17:22:46;6.73;86.72
68257;DHT22;55069;51.568;4.656;2023-02-10T17:25:12;6.66;86.79
68257;DHT22;55069;51.568;4.656;2023-02-10T17:27:38;6.70;86.91
68257;DHT22;55069;51.568;4.656;2023-02-10T17:30:03;6.76;87.04
68257;DHT22;55069;51.568;4.656;2023-02-10T17:32:29;6.77;86.95
68257;DHT22;55069;51.568;4.656;2023-02-10T17:34:55;6.71;87.01
68257;DHT22;55069;51.568;4.656;2023-02-10T17:37:20;6.64;87.12
68257;DHT22;55069;51.568;4.656;2023-02-10T17:39:46;6.60;87.60
68257;DHT22;55069;51.568;4.656;2023-02-10T17:42:15;6.64;87.53